createdAt,value
2023-03-12T00:01:22.222Z,59.52
2023-03-12T00:03:49.930Z,58.94
2023-03-12T00:06:19.348Z,59.19
2023-03-12T00:08:47.032Z,59.00
2023-03-12T00:11:17.672Z,59.42
2023-03-12T00:13:45.137Z,59.45
2023-03-12T00:16:15.142Z,59.46
2023-03-12T00:18:43.076Z,59.01
2023-03-12T00:21:10.838Z,59.14
2023-03-12T00:23:37.772Z,58.80
2023-03-12T00:26:11.180Z,58.95
2023-03-12T00:28:38.798Z,59.20
2023-03-12T00:31:27.192Z,59.00
2023-03-12T00:33:55.868Z,59.12
2023-03-12T00:36:26.982Z,59.37
2023-03-12T00:38:55.115Z,59.29
2023-03-12T00:41:23.491Z,59.64
2023-03-12T00:43:51.614Z,59.39
2023-03-12T00:46:19.467Z,59.12
2023-03-12T00:48:46.824Z,59.57
2023-03-12T00:51:13.736Z,59.42
2023-03-12T00:53:40.727Z,59.01
2023-03-12T00:56:07.868Z,59.38
2023-03-12T00:58:34.752Z,59.43
2023-03-12T01:01:01.837Z,59.14
2023-03-12T01:03:28.788Z,58.81
2023-03-12T01:05:55.753Z,58.68
2023-03-12T01:08:23.388Z,59.30
2023-03-12T01:10:50.679Z,59.17
2023-03-12T01:13:18.136Z,59.29
2023-03-12T01:15:45.176Z,59.12
2023-03-12T01:18:13.175Z,59.27
2023-03-12T01:20:41.020Z,59.18
2023-03-12T01:23:08.863Z,59.46
2023-03-12T01:25:36.653Z,59.80
2023-03-12T01:28:04.414Z,59.07
2023-03-12T01:30:31.632Z,59.22
2023-03-12T01:32:59.004Z,59.82
2023-03-12T01:35:26.277Z,59.66
2023-03-12T01:37:53.468Z,59.13
2023-03-12T01:40:25.543Z,59.08
2023-03-12T01:42:56.860Z,59.49
2023-03-12T01:46:04.853Z,59.89
2023-03-12T01:48:40.106Z,59.16
2023-03-12T01:51:11.225Z,59.67
2023-03-12T01:53:40.502Z,59.34
2023-03-12T01:56:08.959Z,59.72
2023-03-12T01:58:40.561Z,59.77
2023-03-12T02:01:07.563Z,59.35
2023-03-12T02:03:36.050Z,59.67
2023-03-12T02:06:10.089Z,59.40
2023-03-12T02:08:41.807Z,59.93
2023-03-12T02:11:08.922Z,60.03
2023-03-12T02:13:37.532Z,60.06
2023-03-12T02:16:05.096Z,60.24
2023-03-12T02:18:34.111Z,60.03
2023-03-12T02:21:24.402Z,59.98
2023-03-12T02:24:26.177Z,59.92
2023-03-12T02:26:53.221Z,59.53
2023-03-12T02:29:20.521Z,59.43
2023-03-12T02:31:53.046Z,59.16
2023-03-12T02:34:20.106Z,59.72
2023-03-12T02:36:48.546Z,59.44
2023-03-12T02:39:16.257Z,59.48
2023-03-12T02:41:53.799Z,59.57
2023-03-12T02:44:24.466Z,59.50
2023-03-12T02:46:56.439Z,59.55
2023-03-12T02:49:27.647Z,58.99
2023-03-12T02:51:55.029Z,59.53
2023-03-12T02:54:23.090Z,59.17
2023-03-12T02:56:50.913Z,59.25
2023-03-12T02:59:21.128Z,59.22
2023-03-12T03:01:59.957Z,59.62
2023-03-12T03:04:29.763Z,59.69
2023-03-12T03:06:57.131Z,59.84
2023-03-12T03:09:25.249Z,59.55
2023-03-12T03:11:52.469Z,59.51
2023-03-12T03:14:20.167Z,59.25
2023-03-12T03:16:50.436Z,59.15
2023-03-12T03:19:17.402Z,59.47
2023-03-12T03:21:44.476Z,59.69
2023-03-12T03:24:11.513Z,59.39
2023-03-12T03:26:38.545Z,59.32
2023-03-12T03:29:05.442Z,59.94
2023-03-12T03:31:32.568Z,59.66
2023-03-12T03:33:59.592Z,59.59
2023-03-12T03:36:27.120Z,59.68
2023-03-12T03:39:01.156Z,59.91
2023-03-12T03:41:30.185Z,59.99
2023-03-12T03:43:58.603Z,60.55
2023-03-12T03:46:26.671Z,60.74
2023-03-12T03:48:59.256Z,60.54
2023-03-12T03:51:27.241Z,60.49
2023-03-12T03:54:00.416Z,61.14
2023-03-12T03:56:27.896Z,61.21
2023-03-12T03:58:54.874Z,61.36
2023-03-12T04:01:22.684Z,61.27
2023-03-12T04:03:50.947Z,61.62
2023-03-12T04:06:18.417Z,61.83
2023-03-12T04:08:45.869Z,61.73
2023-03-12T04:11:21.080Z,61.77
2023-03-12T04:13:49.236Z,61.86
2023-03-12T04:16:18.752Z,61.46
2023-03-12T04:18:46.614Z,61.92
2023-03-12T04:21:15.320Z,61.96
2023-03-12T04:23:43.482Z,61.47
2023-03-12T04:26:12.466Z,61.60
2023-03-12T04:28:39.943Z,61.38
2023-03-12T04:31:08.962Z,61.73
2023-03-12T04:33:40.972Z,61.76
2023-03-12T04:36:09.674Z,61.30
2023-03-12T04:38:39.771Z,61.52
2023-03-12T04:41:12.447Z,61.41
2023-03-12T04:43:44.495Z,61.35
2023-03-12T04:46:12.128Z,61.85
2023-03-12T04:48:40.287Z,61.96
2023-03-12T04:51:07.356Z,62.03
2023-03-12T04:53:34.917Z,61.38
2023-03-12T04:56:02.704Z,61.62
2023-03-12T04:58:30.843Z,62.08
2023-03-12T05:00:58.160Z,62.36
2023-03-12T05:03:25.401Z,62.21
2023-03-12T05:05:52.412Z,62.04
2023-03-12T05:08:19.377Z,62.15
2023-03-12T05:10:46.877Z,61.77
2023-03-12T05:13:20.618Z,61.77
2023-03-12T05:15:50.704Z,61.79
2023-03-12T05:18:20.505Z,61.98
2023-03-12T05:20:57.254Z,61.72
2023-03-12T05:23:24.394Z,61.96
2023-03-12T05:25:51.314Z,61.70
2023-03-12T05:28:20.136Z,61.61
2023-03-12T05:30:47.288Z,61.67
2023-03-12T05:33:14.840Z,61.69
2023-03-12T05:35:41.732Z,61.80
2023-03-12T05:38:08.682Z,61.78
2023-03-12T05:40:35.604Z,61.63
2023-03-12T05:43:02.516Z,61.36
2023-03-12T05:45:29.506Z,61.36
2023-03-12T05:47:58.668Z,61.53
2023-03-12T05:50:27.556Z,61.17
2023-03-12T05:52:54.816Z,61.63
2023-03-12T05:55:21.724Z,61.40
2023-03-12T05:57:48.707Z,61.37
2023-03-12T06:00:16.455Z,61.54
2023-03-12T06:02:52.148Z,61.40
2023-03-12T06:05:19.607Z,61.81
2023-03-12T06:07:46.577Z,61.51
2023-03-12T06:10:13.601Z,61.91
2023-03-12T06:12:40.604Z,61.76
2023-03-12T06:15:08.084Z,61.88
2023-03-12T06:17:35.254Z,61.99
2023-03-12T06:20:02.293Z,62.03
2023-03-12T06:22:29.987Z,62.03
2023-03-12T06:24:56.964Z,62.16
2023-03-12T06:27:24.574Z,62.41
2023-03-12T06:29:51.497Z,62.48
2023-03-12T06:32:18.620Z,63.05
2023-03-12T06:34:45.812Z,62.74
2023-03-12T06:37:12.799Z,62.69
2023-03-12T06:39:40.182Z,63.09
2023-03-12T06:42:07.267Z,63.07
2023-03-12T06:44:34.214Z,62.99
2023-03-12T06:47:01.126Z,63.41
2023-03-12T06:49:32.088Z,63.43
2023-03-12T06:51:59.149Z,63.56
2023-03-12T06:54:26.044Z,63.42
2023-03-12T06:56:53.440Z,63.10
2023-03-12T06:59:21.735Z,63.39
2023-03-12T07:01:49.406Z,63.07
2023-03-12T07:04:16.364Z,62.89
2023-03-12T07:06:43.640Z,63.25
2023-03-12T07:09:10.622Z,63.01
2023-03-12T07:11:37.509Z,62.62
2023-03-12T07:14:04.418Z,62.78
2023-03-12T07:16:31.582Z,62.98
2023-03-12T07:18:59.031Z,62.94
2023-03-12T07:21:26.035Z,62.57
2023-03-12T07:23:53.482Z,62.65
2023-03-12T07:26:20.773Z,62.98
2023-03-12T07:28:47.914Z,62.67
2023-03-12T07:31:14.993Z,62.56
2023-03-12T07:33:42.203Z,62.09
2023-03-12T07:36:09.292Z,61.91
2023-03-12T07:38:36.330Z,62.21
2023-03-12T07:41:03.309Z,61.57
2023-03-12T07:43:30.473Z,61.85
2023-03-12T07:45:57.401Z,61.50
2023-03-12T07:48:24.381Z,60.66
2023-03-12T07:50:51.335Z,61.00
2023-03-12T07:53:18.506Z,60.66
2023-03-12T07:55:47.028Z,61.00
2023-03-12T07:58:15.997Z,60.59
2023-03-12T08:00:43.163Z,60.54
2023-03-12T08:03:10.482Z,60.52
2023-03-12T08:05:37.558Z,60.07
2023-03-12T08:08:04.563Z,60.14
2023-03-12T08:10:31.820Z,59.94
2023-03-12T08:12:58.843Z,59.08
2023-03-12T08:15:25.805Z,59.14
2023-03-12T08:17:52.781Z,59.55
2023-03-12T08:20:19.743Z,59.08
2023-03-12T08:22:46.638Z,59.16
2023-03-12T08:25:13.585Z,58.97
2023-03-12T08:27:40.513Z,58.61
2023-03-12T08:30:08.269Z,58.91
2023-03-12T08:32:35.251Z,58.69
2023-03-12T08:35:02.450Z,58.36
2023-03-12T08:37:30.320Z,57.82
2023-03-12T08:39:57.492Z,57.48
2023-03-12T08:42:24.386Z,57.36
2023-03-12T08:44:51.264Z,57.25
2023-03-12T08:47:18.160Z,56.68
2023-03-12T08:49:45.067Z,56.58
2023-03-12T08:52:11.934Z,56.83
2023-03-12T08:54:38.832Z,56.64
2023-03-12T08:57:05.712Z,57.06
2023-03-12T08:59:32.614Z,56.26
2023-03-12T09:01:59.546Z,56.37
2023-03-12T09:04:26.733Z,56.44
2023-03-12T09:06:53.615Z,55.74
2023-03-12T09:09:20.524Z,55.62
2023-03-12T09:11:47.404Z,55.56
2023-03-12T09:14:57.562Z,55.23
2023-03-12T09:17:02.214Z,54.33
2023-03-12T09:19:29.508Z,53.90
2023-03-12T09:21:56.438Z,54.07
2023-03-12T09:24:23.473Z,53.63
2023-03-12T09:26:50.668Z,52.98
2023-03-12T09:29:17.603Z,53.10
2023-03-12T09:31:44.572Z,53.10
2023-03-12T09:34:11.485Z,52.43
2023-03-12T09:36:38.373Z,52.80
2023-03-12T09:39:05.806Z,52.17
2023-03-12T09:41:39.724Z,51.53
2023-03-12T09:44:33.640Z,51.64
2023-03-12T09:47:08.752Z,51.31
2023-03-12T09:49:44.846Z,50.66
2023-03-12T09:52:24.831Z,51.30
2023-03-12T09:55:08.757Z,50.67
2023-03-12T09:57:35.655Z,50.01
2023-03-12T10:00:02.768Z,50.30
2023-03-12T10:02:53.081Z,49.52
2023-03-12T10:05:39.277Z,49.80
2023-03-12T10:08:32.887Z,49.48
2023-03-12T10:11:32.186Z,49.37
2023-03-12T10:14:26.153Z,48.54
2023-03-12T10:17:41.269Z,47.18
2023-03-12T10:20:32.274Z,46.10
2023-03-12T10:23:20.612Z,45.12
2023-03-12T10:26:00.475Z,46.12
2023-03-12T10:28:40.731Z,44.92
2023-03-12T10:31:26.572Z,43.21
2023-03-12T10:33:59.162Z,44.26
2023-03-12T10:36:35.705Z,43.55
2023-03-12T10:39:03.512Z,42.46
2023-03-12T10:41:35.078Z,43.34
2023-03-12T10:44:07.826Z,43.51
2023-03-12T10:46:37.684Z,44.14
2023-03-12T10:49:28.090Z,43.11
2023-03-12T10:52:02.751Z,42.59
2023-03-12T10:54:40.589Z,42.63
2023-03-12T10:57:09.298Z,42.82
2023-03-12T10:59:43.357Z,42.17
2023-03-12T11:02:32.631Z,42.29
2023-03-12T11:05:02.050Z,43.08
2023-03-12T11:07:32.620Z,43.63
2023-03-12T11:10:08.531Z,43.23
2023-03-12T11:12:39.724Z,43.66
2023-03-12T11:15:31.821Z,43.45
2023-03-12T11:18:26.387Z,43.83
2023-03-12T11:21:17.288Z,43.31
2023-03-12T11:23:57.622Z,43.26
2023-03-12T11:26:35.553Z,42.16
2023-03-12T11:29:06.367Z,42.05
2023-03-12T11:31:56.119Z,42.22
2023-03-12T11:34:28.726Z,42.83
2023-03-12T11:37:21.478Z,42.06
2023-03-12T11:40:24.241Z,41.79
2023-03-12T11:43:43.219Z,41.56
2023-03-12T11:46:40.780Z,41.75
2023-03-12T11:49:53.831Z,41.08
2023-03-12T11:52:57.539Z,41.00
2023-03-12T11:55:52.682Z,41.36
2023-03-12T11:59:08.226Z,42.01
2023-03-12T12:02:12.105Z,41.56
2023-03-12T12:05:19.125Z,42.11
2023-03-12T12:08:08.168Z,41.79
2023-03-12T12:10:53.244Z,41.97
2023-03-12T12:14:04.590Z,41.62
2023-03-12T12:17:20.352Z,41.73
2023-03-12T12:20:27.219Z,42.31
2023-03-12T12:23:25.262Z,42.06
2023-03-12T12:26:09.939Z,42.18
2023-03-12T12:29:13.969Z,41.76
2023-03-12T12:31:58.462Z,41.97
2023-03-12T12:35:05.374Z,41.39
2023-03-12T12:37:56.667Z,41.19
2023-03-12T12:41:13.183Z,41.58
2023-03-12T12:43:41.591Z,41.90
2023-03-12T12:46:17.719Z,41.13
2023-03-12T12:48:56.913Z,41.96
2023-03-12T12:51:30.646Z,41.97
2023-03-12T12:54:26.410Z,41.46
2023-03-12T12:57:16.349Z,41.62
2023-03-12T13:00:22.364Z,41.63
2023-03-12T13:02:49.726Z,41.97
2023-03-12T13:05:54.038Z,42.17
2023-03-12T13:08:42.269Z,42.00
2023-03-12T13:11:18.660Z,41.82
2023-03-12T13:13:54.189Z,41.95
2023-03-12T13:16:30.209Z,42.01
2023-03-12T13:19:13.649Z,41.63
2023-03-12T13:22:15.188Z,41.95
2023-03-12T13:25:24.089Z,42.15
2023-03-12T13:28:00.872Z,41.94
2023-03-12T13:30:33.512Z,42.19
2023-03-12T13:33:03.136Z,42.28
2023-03-12T13:35:38.979Z,41.58
2023-03-12T13:38:12.518Z,42.12
2023-03-12T13:41:03.249Z,42.34
2023-03-12T13:43:39.360Z,42.55
2023-03-12T13:46:42.428Z,42.77
2023-03-12T13:49:15.246Z,42.73
2023-03-12T13:51:55.854Z,42.96
2023-03-12T13:54:29.918Z,42.58
2023-03-12T13:57:11.913Z,42.64
2023-03-12T13:59:45.782Z,43.17
2023-03-12T14:02:37.044Z,43.09
2023-03-12T14:05:11.071Z,43.16
2023-03-12T14:07:58.127Z,43.28
2023-03-12T14:11:16.741Z,43.45
2023-03-12T14:14:24.192Z,43.27
2023-03-12T14:16:57.414Z,43.43
2023-03-12T14:19:27.960Z,43.43
2023-03-12T14:22:00.061Z,43.31
2023-03-12T14:24:35.272Z,43.64
2023-03-12T14:27:05.771Z,43.12
2023-03-12T14:29:45.648Z,43.48
2023-03-12T14:32:21.160Z,42.76
2023-03-12T14:35:17.574Z,42.43
2023-03-12T14:38:05.418Z,42.29
2023-03-12T14:41:00.705Z,41.83
2023-03-12T14:43:32.533Z,40.49
2023-03-12T14:46:04.814Z,39.41
2023-03-12T14:48:37.138Z,39.21
2023-03-12T14:51:06.831Z,39.54
2023-03-12T14:53:37.330Z,39.91
2023-03-12T14:56:13.899Z,40.25
2023-03-12T14:58:49.623Z,40.63
2023-03-12T15:01:32.447Z,41.22
2023-03-12T15:04:03.003Z,41.54
2023-03-12T15:06:32.832Z,41.61
2023-03-12T15:09:04.273Z,41.24
2023-03-12T15:11:34.880Z,41.64
2023-03-12T15:14:07.275Z,41.46
2023-03-12T15:16:35.092Z,41.27
2023-03-12T15:19:03.753Z,41.53
2023-03-12T15:21:34.835Z,41.36
2023-03-12T15:24:02.922Z,41.68
2023-03-12T15:26:34.381Z,41.79
2023-03-12T15:29:27.263Z,41.93
2023-03-12T15:31:58.189Z,42.58
2023-03-12T15:34:27.908Z,42.35
2023-03-12T15:36:54.958Z,42.91
2023-03-12T15:39:32.996Z,43.15
2023-03-12T15:42:10.376Z,43.40
2023-03-12T15:44:59.914Z,43.42
2023-03-12T15:47:33.185Z,43.44
2023-03-12T15:50:42.673Z,43.67
2023-03-12T15:53:12.159Z,43.59
2023-03-12T15:55:39.514Z,43.90
2023-03-12T15:58:31.766Z,44.17
2023-03-12T16:01:16.958Z,44.33
2023-03-12T16:03:45.820Z,44.60
2023-03-12T16:06:18.879Z,44.70
2023-03-12T16:08:50.527Z,44.85
2023-03-12T16:11:30.871Z,44.98
2023-03-12T16:14:29.742Z,44.84
2023-03-12T16:16:56.664Z,44.96
2023-03-12T16:19:26.055Z,45.09
2023-03-12T16:21:52.990Z,45.02
2023-03-12T16:24:19.860Z,45.16
2023-03-12T16:26:53.922Z,44.84
2023-03-12T16:29:22.232Z,44.77
2023-03-12T16:31:55.631Z,44.80
2023-03-12T16:34:22.970Z,44.74
2023-03-12T16:36:50.298Z,44.67
2023-03-12T16:39:18.913Z,44.63
2023-03-12T16:41:46.665Z,44.46
2023-03-12T16:44:21.471Z,44.51
2023-03-12T16:46:48.718Z,44.43
2023-03-12T16:49:18.062Z,44.13
2023-03-12T16:51:45.043Z,44.24
2023-03-12T16:54:12.556Z,44.36
2023-03-12T16:56:44.947Z,44.49
2023-03-12T16:59:25.927Z,44.56
2023-03-12T17:01:53.486Z,44.47
2023-03-12T17:04:20.498Z,44.52
2023-03-12T17:06:47.414Z,44.65
2023-03-12T17:09:14.335Z,44.94
2023-03-12T17:11:41.290Z,45.11
2023-03-12T17:14:22.020Z,45.14
2023-03-12T17:16:49.508Z,45.15
2023-03-12T17:19:16.874Z,45.50
2023-03-12T17:21:44.267Z,45.42
2023-03-12T17:24:14.050Z,46.06
2023-03-12T17:26:43.011Z,45.73
2023-03-12T17:29:09.911Z,45.98
2023-03-12T17:31:37.597Z,46.11
2023-03-12T17:34:04.802Z,45.81
2023-03-12T17:36:31.691Z,46.46
2023-03-12T17:38:58.623Z,46.70
2023-03-12T17:41:27.348Z,46.95
2023-03-12T17:43:58.396Z,47.19
2023-03-12T17:46:25.359Z,47.41
2023-03-12T17:48:52.710Z,47.56
2023-03-12T17:51:21.048Z,47.81
2023-03-12T17:53:48.233Z,47.83
2023-03-12T17:56:17.905Z,48.17
2023-03-12T17:58:45.598Z,48.83
2023-03-12T18:01:13.531Z,49.25
2023-03-12T18:03:40.649Z,49.20
2023-03-12T18:06:07.918Z,49.52
2023-03-12T18:08:34.817Z,49.77
2023-03-12T18:11:02.955Z,49.86
2023-03-12T18:13:30.785Z,50.21
2023-03-12T18:15:58.600Z,50.72
2023-03-12T18:18:26.881Z,50.96
2023-03-12T18:20:54.260Z,51.55
2023-03-12T18:23:21.210Z,51.77
2023-03-12T18:25:48.089Z,52.04
2023-03-12T18:28:15.339Z,52.55
2023-03-12T18:30:44.854Z,52.74
2023-03-12T18:33:11.696Z,52.85
2023-03-12T18:35:38.622Z,53.30
2023-03-12T18:38:05.498Z,53.02
2023-03-12T18:40:35.113Z,53.57
2023-03-12T18:43:02.868Z,54.51
2023-03-12T18:45:30.387Z,54.52
2023-03-12T18:47:57.283Z,54.95
2023-03-12T18:50:24.273Z,55.18
2023-03-12T18:52:51.154Z,55.51
2023-03-12T18:55:18.331Z,55.49
2023-03-12T18:57:47.609Z,57.18
2023-03-12T19:00:17.739Z,58.01
2023-03-12T19:02:47.978Z,59.85
2023-03-12T19:05:15.876Z,60.48
2023-03-12T19:07:43.606Z,59.13
2023-03-12T19:10:11.992Z,57.92
2023-03-12T19:12:50.842Z,57.95
2023-03-12T19:15:19.240Z,57.78
2023-03-12T19:17:46.235Z,57.64
2023-03-12T19:20:13.309Z,57.67
2023-03-12T19:22:40.266Z,57.81
2023-03-12T19:25:07.951Z,58.01
2023-03-12T19:27:34.866Z,58.50
2023-03-12T19:30:01.831Z,61.64
2023-03-12T19:32:40.577Z,60.88
2023-03-12T19:35:11.749Z,60.35
2023-03-12T19:37:38.685Z,59.13
2023-03-12T19:40:06.586Z,58.96
2023-03-12T19:42:33.710Z,59.19
2023-03-12T19:45:00.653Z,59.14
2023-03-12T19:47:28.071Z,59.22
2023-03-12T19:49:54.950Z,59.06
2023-03-12T19:52:21.865Z,59.62
2023-03-12T19:55:02.959Z,59.21
2023-03-12T19:57:32.423Z,59.92
2023-03-12T19:59:59.326Z,60.22
2023-03-12T20:02:26.536Z,60.12
2023-03-12T20:04:55.215Z,60.06
2023-03-12T20:07:22.578Z,60.81
2023-03-12T20:09:49.659Z,60.54
2023-03-12T20:12:16.572Z,60.13
2023-03-12T20:14:43.466Z,59.92
2023-03-12T20:17:12.091Z,60.28
2023-03-12T20:19:39.163Z,60.93
2023-03-12T20:22:06.976Z,60.71
2023-03-12T20:24:33.966Z,60.56
2023-03-12T20:27:01.094Z,60.60
2023-03-12T20:29:27.973Z,60.77
2023-03-12T20:31:54.990Z,60.69
2023-03-12T20:34:22.186Z,60.71
2023-03-12T20:36:49.099Z,61.32
2023-03-12T20:39:15.999Z,61.32
2023-03-12T20:41:42.897Z,61.30
2023-03-12T20:44:09.894Z,61.44
2023-03-12T20:46:36.782Z,60.99
2023-03-12T20:49:03.669Z,61.42
2023-03-12T20:51:30.624Z,60.94
2023-03-12T20:53:57.871Z,61.00
2023-03-12T20:56:24.772Z,61.19
2023-03-12T20:58:52.244Z,61.05
2023-03-12T21:01:19.221Z,60.83
2023-03-12T21:03:46.217Z,61.18
2023-03-12T21:06:13.856Z,60.80
2023-03-12T21:08:40.748Z,60.84
2023-03-12T21:11:08.494Z,60.93
2023-03-12T21:13:36.676Z,60.90
2023-03-12T21:16:06.607Z,60.88
2023-03-12T21:18:33.646Z,60.95
2023-03-12T21:21:08.370Z,60.78
2023-03-12T21:23:36.237Z,61.01
2023-03-12T21:26:08.969Z,60.89
2023-03-12T21:28:36.253Z,61.03
2023-03-12T21:31:15.656Z,61.30
2023-03-12T21:33:42.939Z,60.97
2023-03-12T21:36:13.178Z,61.29
2023-03-12T21:38:42.717Z,61.14
2023-03-12T21:41:16.018Z,61.35
2023-03-12T21:43:44.481Z,61.12
2023-03-12T21:46:18.889Z,61.21
2023-03-12T21:48:48.014Z,61.69
2023-03-12T21:51:17.221Z,62.00
2023-03-12T21:53:44.406Z,62.26
2023-03-12T21:56:11.824Z,62.34
2023-03-12T21:58:38.941Z,62.58
2023-03-12T22:01:13.703Z,62.46
2023-03-12T22:03:41.993Z,62.34
2023-03-12T22:06:10.169Z,62.31
2023-03-12T22:08:37.645Z,62.29
2023-03-12T22:11:05.925Z,62.65
2023-03-12T22:13:32.798Z,62.11
2023-03-12T22:16:02.737Z,62.49
2023-03-12T22:18:30.227Z,62.55
2023-03-12T22:21:04.586Z,62.61
2023-03-12T22:23:31.853Z,62.63
2023-03-12T22:26:06.347Z,62.55
2023-03-12T22:28:33.444Z,62.78
2023-03-12T22:31:03.532Z,62.60
2023-03-12T22:33:30.870Z,62.79
2023-03-12T22:35:58.083Z,62.89
2023-03-12T22:38:25.432Z,62.71
2023-03-12T22:40:54.913Z,62.74
2023-03-12T22:43:22.435Z,62.77
2023-03-12T22:45:53.980Z,62.80
2023-03-12T22:48:20.880Z,62.83
2023-03-12T22:50:54.437Z,63.00
2023-03-12T22:53:21.466Z,63.07
2023-03-12T22:56:04.732Z,63.05
2023-03-12T22:58:31.987Z,62.77
2023-03-12T23:01:05.020Z,63.13
2023-03-12T23:03:33.877Z,62.86
2023-03-12T23:06:01.742Z,63.07
2023-03-12T23:08:29.582Z,62.46
2023-03-12T23:10:59.939Z,63.01
2023-03-12T23:13:29.456Z,63.15
2023-03-12T23:16:05.551Z,63.25
2023-03-12T23:18:33.150Z,63.40
2023-03-12T23:21:03.818Z,63.56
2023-03-12T23:23:30.879Z,63.62
2023-03-12T23:26:00.146Z,63.32
2023-03-12T23:28:28.745Z,63.34
2023-03-12T23:31:04.822Z,63.51
2023-03-12T23:33:32.923Z,63.80
2023-03-12T23:36:02.925Z,63.79
2023-03-12T23:38:31.307Z,63.83
2023-03-12T23:41:15.708Z,64.03
2023-03-12T23:43:43.158Z,63.88
2023-03-12T23:46:11.810Z,64.24
2023-03-12T23:48:40.334Z,64.17
2023-03-12T23:51:13.917Z,64.53
2023-03-12T23:53:43.896Z,64.48
2023-03-12T23:56:14.907Z,64.51
2023-03-12T23:58:42.858Z,64.22
